createdAt,value
2023-05-01T00:01:59.321Z,20.23
2023-05-01T00:04:26.382Z,19.40
2023-05-01T00:06:53.410Z,15.23
2023-05-01T00:09:20.137Z,16.88
2023-05-01T00:11:46.868Z,15.15
2023-05-01T00:14:13.609Z,17.75
2023-05-01T00:16:40.304Z,17.85
2023-05-01T00:19:06.953Z,17.88
2023-05-01T00:21:33.682Z,20.88
2023-05-01T00:24:00.279Z,15.05
2023-05-01T00:26:30.570Z,14.38
2023-05-01T00:28:58.287Z,15.50
2023-05-01T00:31:25.854Z,18.83
2023-05-01T00:33:52.818Z,13.27
2023-05-01T00:36:19.644Z,16.52
2023-05-01T00:38:46.410Z,16.52
2023-05-01T00:41:13.272Z,15.13
2023-05-01T00:43:39.880Z,17.58
2023-05-01T00:46:08.118Z,16.48
2023-05-01T00:48:35.479Z,13.90
2023-05-01T00:51:05.170Z,16.95
2023-05-01T00:53:33.752Z,15.57
2023-05-01T00:56:01.058Z,14.65
2023-05-01T00:58:27.815Z,17.15
2023-05-01T01:00:55.264Z,17.35
2023-05-01T01:03:22.148Z,17.23
2023-05-01T01:06:11.693Z,16.35
2023-05-01T01:08:52.590Z,15.38
2023-05-01T01:11:51.800Z,18.05
2023-05-01T01:14:27.040Z,18.98
2023-05-01T01:16:59.878Z,14.73
2023-05-01T01:19:56.484Z,13.85
2023-05-01T01:22:26.203Z,15.82
2023-05-01T01:25:20.265Z,15.73
2023-05-01T01:28:16.803Z,17.17
2023-05-01T01:31:10.532Z,14.38
2023-05-01T01:33:43.498Z,14.85
2023-05-01T01:36:22.594Z,14.80
2023-05-01T01:39:30.320Z,14.32
2023-05-01T01:41:59.826Z,13.85
2023-05-01T01:44:54.903Z,15.00
2023-05-01T01:47:28.268Z,14.52
2023-05-01T01:49:56.852Z,14.45
2023-05-01T01:52:24.973Z,12.77
2023-05-01T01:54:54.591Z,14.20
2023-05-01T01:57:23.778Z,13.88
2023-05-01T01:59:51.470Z,14.98
2023-05-01T02:02:20.729Z,12.52
2023-05-01T02:04:49.327Z,16.87
2023-05-01T02:07:18.537Z,14.05
2023-05-01T02:09:46.533Z,12.87
2023-05-01T02:12:16.689Z,15.20
2023-05-01T02:17:13.736Z,12.52
2023-05-01T02:19:40.816Z,17.48
2023-05-01T02:22:08.640Z,12.25
2023-05-01T02:24:38.339Z,13.68
2023-05-01T02:27:14.156Z,14.77
2023-05-01T02:29:40.956Z,14.00
2023-05-01T02:32:07.659Z,16.15
2023-05-01T02:34:35.746Z,14.63
2023-05-01T02:37:04.610Z,15.38
2023-05-01T02:39:31.771Z,11.88
2023-05-01T02:42:01.434Z,16.70
2023-05-01T02:44:29.128Z,13.52
2023-05-01T02:46:57.367Z,15.82
2023-05-01T02:49:24.345Z,13.60
2023-05-01T02:51:51.345Z,15.95
2023-05-01T02:54:18.668Z,13.07
2023-05-01T02:56:45.321Z,15.07
2023-05-01T02:59:12.192Z,16.17
2023-05-01T03:01:39.811Z,15.77
2023-05-01T03:04:06.768Z,13.38
2023-05-01T03:06:33.543Z,13.13
2023-05-01T03:09:00.253Z,12.57
2023-05-01T03:11:27.039Z,15.07
2023-05-01T03:13:53.670Z,11.70
2023-05-01T03:16:20.380Z,12.70
2023-05-01T03:18:47.117Z,14.15
2023-05-01T03:21:13.875Z,12.60
2023-05-01T03:23:40.609Z,12.57
2023-05-01T03:26:07.761Z,13.48
2023-05-01T03:28:34.454Z,13.63
2023-05-01T03:31:01.327Z,14.25
2023-05-01T03:33:27.978Z,10.98
2023-05-01T03:36:05.472Z,10.75
2023-05-01T03:38:33.006Z,12.88
2023-05-01T03:40:59.985Z,15.80
2023-05-01T03:43:26.706Z,14.38
2023-05-01T03:45:53.707Z,14.32
2023-05-01T03:48:20.712Z,11.60
2023-05-01T03:50:47.652Z,10.65
2023-05-01T03:53:14.663Z,13.15
2023-05-01T03:55:41.640Z,16.75
2023-05-01T03:58:08.470Z,17.17
2023-05-01T04:00:35.084Z,14.30
2023-05-01T04:03:02.245Z,13.60
2023-05-01T04:05:29.617Z,13.70
2023-05-01T04:07:56.932Z,12.55
2023-05-01T04:10:23.673Z,16.63
2023-05-01T04:12:50.306Z,14.43
2023-05-01T04:15:17.151Z,16.33
2023-05-01T04:17:43.946Z,14.15
2023-05-01T04:20:11.082Z,14.02
2023-05-01T04:22:38.023Z,11.90
2023-05-01T04:25:07.134Z,13.63
2023-05-01T04:27:33.779Z,12.88
2023-05-01T04:30:00.731Z,15.13
2023-05-01T04:32:27.581Z,12.77
2023-05-01T04:34:54.237Z,13.25
2023-05-01T04:37:22.155Z,11.02
2023-05-01T04:39:48.805Z,14.55
2023-05-01T04:42:15.648Z,12.90
2023-05-01T04:44:42.441Z,11.05
2023-05-01T04:47:09.328Z,13.25
2023-05-01T04:49:36.114Z,11.30
2023-05-01T04:52:02.755Z,13.25
2023-05-01T04:54:29.482Z,14.73
2023-05-01T04:56:56.085Z,11.27
2023-05-01T04:59:22.892Z,12.95
2023-05-01T05:01:49.627Z,10.38
2023-05-01T05:04:16.303Z,13.93
2023-05-01T05:06:43.035Z,13.27
2023-05-01T05:09:11.196Z,12.13
2023-05-01T05:11:37.961Z,17.02
2023-05-01T05:14:04.830Z,10.75
2023-05-01T05:16:31.445Z,12.25
2023-05-01T05:18:58.262Z,14.10
2023-05-01T05:21:24.926Z,14.00
2023-05-01T05:23:51.690Z,14.00
2023-05-01T05:26:18.659Z,14.27
2023-05-01T05:28:45.830Z,15.35
2023-05-01T05:31:12.436Z,15.70
2023-05-01T05:33:39.430Z,12.73
2023-05-01T05:36:06.689Z,15.77
2023-05-01T05:38:33.326Z,13.23
2023-05-01T05:41:01.066Z,10.18
2023-05-01T05:43:28.340Z,15.55
2023-05-01T05:45:59.176Z,13.68
2023-05-01T05:48:26.336Z,12.13
2023-05-01T05:50:53.117Z,11.40
2023-05-01T05:53:20.399Z,11.45
2023-05-01T05:55:48.301Z,13.65
2023-05-01T05:58:19.973Z,15.13
2023-05-01T06:00:48.383Z,8.68
2023-05-01T06:03:16.370Z,11.80
2023-05-01T06:05:43.980Z,11.75
2023-05-01T06:08:11.476Z,10.68
2023-05-01T06:10:39.936Z,8.63
2023-05-01T06:13:13.787Z,11.95
2023-05-01T06:15:41.595Z,10.30
2023-05-01T06:18:08.833Z,8.32
2023-05-01T06:20:36.115Z,9.82
2023-05-01T06:23:02.711Z,13.15
2023-05-01T06:25:30.037Z,9.25
2023-05-01T06:27:56.688Z,8.02
2023-05-01T06:30:23.377Z,10.00
2023-05-01T06:32:50.228Z,12.20
2023-05-01T06:35:17.361Z,10.82
2023-05-01T06:37:43.938Z,9.35
2023-05-01T06:40:12.156Z,9.65
2023-05-01T06:42:39.725Z,10.88
2023-05-01T06:45:07.782Z,8.02
2023-05-01T06:47:34.772Z,12.05
2023-05-01T06:50:03.560Z,10.88
2023-05-01T06:52:31.949Z,16.52
2023-05-01T06:54:58.638Z,7.90
2023-05-01T06:57:25.288Z,9.63
2023-05-01T06:59:51.958Z,12.30
2023-05-01T07:02:18.744Z,10.82
2023-05-01T07:04:45.593Z,8.00
2023-05-01T07:07:12.496Z,9.10
2023-05-01T07:09:41.567Z,6.68
2023-05-01T07:12:08.631Z,8.98
2023-05-01T07:14:35.939Z,7.43
2023-05-01T07:17:03.315Z,10.85
2023-05-01T07:19:30.122Z,10.63
2023-05-01T07:21:56.789Z,10.02
2023-05-01T07:24:23.589Z,8.52
2023-05-01T07:26:50.281Z,8.95
2023-05-01T07:29:17.195Z,7.85
2023-05-01T07:31:44.502Z,9.38
2023-05-01T07:34:11.775Z,9.73
2023-05-01T07:36:38.744Z,10.85
2023-05-01T07:39:06.611Z,6.60
2023-05-01T07:41:33.423Z,8.27
2023-05-01T07:44:00.864Z,7.50
2023-05-01T07:46:27.777Z,9.75
2023-05-01T07:48:54.573Z,7.60
2023-05-01T07:51:21.835Z,9.90
2023-05-01T07:53:49.537Z,7.07
2023-05-01T07:56:16.385Z,11.93
2023-05-01T07:58:43.985Z,11.18
2023-05-01T08:01:10.801Z,8.50
2023-05-01T08:03:37.855Z,8.27
2023-05-01T08:06:05.347Z,6.32
2023-05-01T08:08:32.147Z,7.15
2023-05-01T08:10:58.797Z,5.15
2023-05-01T08:13:25.539Z,6.20
2023-05-01T08:15:52.631Z,8.73
2023-05-01T08:18:22.408Z,12.20
2023-05-01T08:20:49.394Z,6.25
2023-05-01T08:23:17.328Z,7.88
2023-05-01T08:25:46.769Z,5.57
2023-05-01T08:28:14.887Z,8.63
2023-05-01T08:30:41.559Z,7.57
2023-05-01T08:33:08.224Z,9.35
2023-05-01T08:35:34.915Z,7.75
2023-05-01T08:38:01.764Z,5.38
2023-05-01T08:40:32.438Z,8.48
2023-05-01T08:43:01.485Z,8.50
2023-05-01T08:45:31.215Z,7.03
2023-05-01T08:47:59.084Z,13.23
2023-05-01T08:50:27.563Z,6.57
2023-05-01T08:52:54.864Z,8.18
2023-05-01T08:55:22.665Z,6.80
2023-05-01T08:57:51.066Z,5.70
2023-05-01T09:00:20.004Z,5.00
2023-05-01T09:02:49.046Z,8.07
2023-05-01T09:05:17.176Z,9.63
2023-05-01T09:07:46.117Z,7.65
2023-05-01T09:10:15.365Z,7.18
2023-05-01T09:12:44.881Z,6.40
2023-05-01T09:15:12.314Z,6.25
2023-05-01T09:17:39.971Z,9.07
2023-05-01T09:20:07.791Z,6.03
2023-05-01T09:22:35.477Z,7.32
2023-05-01T09:25:03.861Z,7.55
2023-05-01T09:27:35.833Z,5.13
2023-05-01T09:30:03.423Z,5.25
2023-05-01T09:32:30.629Z,7.20
2023-05-01T09:35:18.364Z,7.28
2023-05-01T09:37:49.823Z,5.43
2023-05-01T09:40:16.459Z,6.80
2023-05-01T09:42:53.708Z,9.55
2023-05-01T09:45:20.694Z,9.07
2023-05-01T09:47:47.679Z,7.78
2023-05-01T09:50:34.590Z,9.05
2023-05-01T09:53:01.963Z,6.90
2023-05-01T09:55:28.663Z,7.95
2023-05-01T09:57:55.265Z,8.18
2023-05-01T10:00:22.212Z,6.22
2023-05-01T10:02:50.534Z,11.15
2023-05-01T10:05:18.470Z,5.28
2023-05-01T10:08:03.779Z,7.60
2023-05-01T10:10:30.765Z,7.53
2023-05-01T10:13:16.216Z,9.27
2023-05-01T10:15:44.176Z,12.82
2023-05-01T10:18:14.117Z,8.73
2023-05-01T10:20:41.003Z,10.63
2023-05-01T10:23:08.150Z,6.20
2023-05-01T10:25:36.738Z,10.50
2023-05-01T10:28:04.692Z,7.72
2023-05-01T10:30:32.406Z,5.90
2023-05-01T10:32:59.639Z,7.68
2023-05-01T10:35:29.710Z,7.80
2023-05-01T10:38:04.930Z,7.15
2023-05-01T10:40:41.056Z,8.73
2023-05-01T10:43:15.831Z,6.43
2023-05-01T10:45:43.981Z,11.30
2023-05-01T10:48:10.863Z,7.95
2023-05-01T10:51:17.894Z,7.32
2023-05-01T10:53:46.354Z,9.73
2023-05-01T10:56:36.318Z,7.55
2023-05-01T10:59:06.634Z,9.32
2023-05-01T11:01:38.344Z,7.88
2023-05-01T11:04:27.242Z,7.07
2023-05-01T11:07:04.541Z,7.65
2023-05-01T11:09:41.455Z,6.80
2023-05-01T11:12:10.001Z,6.43
2023-05-01T11:15:02.600Z,9.18
2023-05-01T11:17:41.625Z,8.50
2023-05-01T11:20:13.417Z,7.00
2023-05-01T11:22:45.781Z,10.02
2023-05-01T11:25:21.041Z,7.32
2023-05-01T11:28:01.817Z,6.32
2023-05-01T11:30:38.878Z,9.48
2023-05-01T11:33:09.175Z,10.38
2023-05-01T11:35:37.307Z,8.02
2023-05-01T11:38:04.043Z,15.10
2023-05-01T11:40:33.169Z,7.47
2023-05-01T11:43:07.715Z,9.45
2023-05-01T11:45:36.971Z,6.78
2023-05-01T11:48:05.105Z,10.70
2023-05-01T11:50:39.231Z,8.50
2023-05-01T11:53:17.297Z,8.23
2023-05-01T11:55:44.584Z,10.55
2023-05-01T11:58:12.099Z,7.53
2023-05-01T12:00:41.645Z,5.95
2023-05-01T12:03:13.634Z,6.90
2023-05-01T12:05:44.947Z,7.25
2023-05-01T12:08:23.182Z,6.90
2023-05-01T12:10:52.686Z,7.97
2023-05-01T12:13:20.619Z,8.05
2023-05-01T12:15:49.525Z,8.70
2023-05-01T12:18:17.407Z,6.65
2023-05-01T12:20:50.364Z,5.80
2023-05-01T12:23:17.350Z,8.65
2023-05-01T12:25:45.604Z,5.80
2023-05-01T12:28:18.145Z,6.35
2023-05-01T12:30:46.350Z,5.20
2023-05-01T12:33:18.242Z,7.97
2023-05-01T12:35:46.970Z,6.80
2023-05-01T12:38:18.456Z,4.70
2023-05-01T12:40:53.844Z,6.90
2023-05-01T12:43:34.927Z,4.68
2023-05-01T12:46:03.604Z,8.20
2023-05-01T12:48:31.632Z,6.82
2023-05-01T12:50:58.686Z,6.20
2023-05-01T12:53:26.853Z,5.55
2023-05-01T12:55:58.840Z,8.68
2023-05-01T12:58:38.619Z,4.97
2023-05-01T13:01:06.266Z,7.20
2023-05-01T13:03:34.133Z,7.88
2023-05-01T13:06:03.808Z,7.45
2023-05-01T13:08:40.010Z,10.60
2023-05-01T13:11:17.541Z,6.03
2023-05-01T13:13:45.945Z,6.53
2023-05-01T13:16:16.888Z,7.25
2023-05-01T13:18:52.172Z,4.78
2023-05-01T13:21:23.463Z,7.00
2023-05-01T13:23:57.874Z,6.45
2023-05-01T13:26:32.977Z,5.68
2023-05-01T13:29:03.204Z,8.27
2023-05-01T13:31:30.478Z,4.53
2023-05-01T13:33:59.475Z,7.90
2023-05-01T13:36:27.495Z,7.22
2023-05-01T13:38:56.960Z,6.68
2023-05-01T13:41:26.066Z,4.80
2023-05-01T13:43:54.191Z,5.78
2023-05-01T13:46:23.200Z,7.57
2023-05-01T13:48:50.415Z,6.80
2023-05-01T13:51:24.978Z,6.22
2023-05-01T13:53:54.156Z,5.93
2023-05-01T13:56:21.889Z,7.07
2023-05-01T13:58:50.113Z,5.68
2023-05-01T14:01:19.307Z,8.05
2023-05-01T14:03:47.379Z,7.03
2023-05-01T14:06:19.650Z,7.10
2023-05-01T14:08:47.950Z,6.78
2023-05-01T14:11:15.423Z,6.47
2023-05-01T14:13:44.129Z,6.60
2023-05-01T14:16:31.756Z,5.95
2023-05-01T14:18:59.014Z,7.82
2023-05-01T14:21:30.329Z,4.93
2023-05-01T14:23:58.105Z,5.55
2023-05-01T14:26:25.026Z,6.55
2023-05-01T14:28:52.236Z,6.65
2023-05-01T14:31:27.092Z,5.03
2023-05-01T14:34:00.119Z,4.80
2023-05-01T14:36:30.930Z,6.72
2023-05-01T14:39:01.848Z,5.35
2023-05-01T14:41:30.051Z,4.95
2023-05-01T14:43:57.035Z,6.18
2023-05-01T14:46:32.545Z,6.88
2023-05-01T14:49:00.942Z,5.82
2023-05-01T14:51:28.597Z,5.35
2023-05-01T14:53:55.436Z,4.75
2023-05-01T14:56:23.093Z,5.57
2023-05-01T14:58:50.010Z,4.40
2023-05-01T15:01:18.129Z,7.57
2023-05-01T15:03:45.627Z,5.65
2023-05-01T15:06:12.570Z,4.18
2023-05-01T15:08:39.442Z,5.70
2023-05-01T15:11:06.408Z,5.85
2023-05-01T15:13:33.164Z,5.95
2023-05-01T15:16:00.183Z,5.25
2023-05-01T15:18:26.961Z,5.85
2023-05-01T15:20:53.656Z,8.20
2023-05-01T15:23:20.727Z,5.72
2023-05-01T15:25:47.961Z,7.80
2023-05-01T15:28:14.973Z,6.13
2023-05-01T15:30:46.711Z,4.68
2023-05-01T15:33:16.279Z,5.72
2023-05-01T15:35:46.241Z,4.90
2023-05-01T15:38:12.949Z,6.55
2023-05-01T15:40:39.837Z,5.68
2023-05-01T15:43:06.690Z,5.20
2023-05-01T15:45:33.506Z,5.43
2023-05-01T15:48:01.006Z,5.25
2023-05-01T15:50:28.149Z,5.20
2023-05-01T15:52:54.781Z,5.72
2023-05-01T15:55:22.081Z,7.03
2023-05-01T15:57:48.880Z,6.35
2023-05-01T16:00:16.879Z,6.93
2023-05-01T16:02:44.641Z,5.32
2023-05-01T16:05:14.185Z,6.57
2023-05-01T16:07:41.063Z,7.30
2023-05-01T16:10:08.973Z,5.97
2023-05-01T16:12:35.696Z,7.45
2023-05-01T16:15:03.825Z,7.97
2023-05-01T16:17:33.250Z,3.63
2023-05-01T16:20:01.850Z,6.47
2023-05-01T16:22:29.112Z,5.03
2023-05-01T16:24:58.108Z,5.97
2023-05-01T16:27:24.709Z,6.90
2023-05-01T16:29:51.419Z,5.60
2023-05-01T16:32:18.211Z,6.82
2023-05-01T16:34:45.019Z,7.43
2023-05-01T16:37:15.171Z,7.80
2023-05-01T16:39:41.991Z,5.82
2023-05-01T16:42:12.578Z,6.20
2023-05-01T16:44:39.522Z,8.52
2023-05-01T16:47:06.565Z,7.47
2023-05-01T16:49:33.659Z,7.32
2023-05-01T16:52:02.546Z,6.82
2023-05-01T16:54:35.855Z,5.78
2023-05-01T16:57:03.505Z,5.57
2023-05-01T16:59:30.732Z,7.25
2023-05-01T17:01:57.607Z,7.75
2023-05-01T17:04:25.232Z,7.07
2023-05-01T17:06:52.141Z,12.45
2023-05-01T17:09:18.857Z,8.18
2023-05-01T17:11:45.536Z,9.20
2023-05-01T17:14:12.121Z,9.63
2023-05-01T17:16:39.717Z,9.15
2023-05-01T17:19:08.975Z,7.15
2023-05-01T17:21:36.222Z,9.05
2023-05-01T17:24:03.259Z,7.97
2023-05-01T17:26:30.043Z,12.23
2023-05-01T17:28:56.712Z,8.70
2023-05-01T17:31:23.384Z,6.43
2023-05-01T17:33:50.174Z,7.95
2023-05-01T17:36:16.850Z,7.63
2023-05-01T17:38:43.833Z,7.57
2023-05-01T17:41:10.571Z,9.55
2023-05-01T17:43:37.322Z,8.45
2023-05-01T17:46:04.999Z,6.00
2023-05-01T17:48:31.853Z,9.00
2023-05-01T17:50:58.587Z,7.43
2023-05-01T17:53:25.291Z,7.85
2023-05-01T17:55:52.132Z,9.52
2023-05-01T17:58:18.852Z,5.65
2023-05-01T18:00:45.609Z,7.95
2023-05-01T18:03:12.896Z,8.15
2023-05-01T18:05:39.776Z,6.15
2023-05-01T18:08:06.747Z,8.90
2023-05-01T18:10:33.881Z,4.28
2023-05-01T18:13:00.730Z,9.48
2023-05-01T18:15:27.676Z,8.93
2023-05-01T18:17:54.363Z,11.52
2023-05-01T18:20:21.419Z,12.10
2023-05-01T18:22:48.057Z,8.75
2023-05-01T18:25:15.945Z,8.80
2023-05-01T18:27:42.845Z,9.68
2023-05-01T18:30:10.095Z,7.13
2023-05-01T18:32:47.729Z,10.02
2023-05-01T18:35:17.081Z,7.15
2023-05-01T18:37:44.039Z,12.57
2023-05-01T18:40:11.597Z,10.32
2023-05-01T18:42:40.072Z,15.65
2023-05-01T18:45:07.590Z,11.85
2023-05-01T18:47:34.377Z,9.75
2023-05-01T18:50:01.441Z,10.52
2023-05-01T18:52:29.329Z,7.45
2023-05-01T18:54:55.978Z,8.50
2023-05-01T18:57:22.956Z,8.48
2023-05-01T18:59:49.679Z,6.95
2023-05-01T19:02:16.444Z,7.38
2023-05-01T19:04:56.941Z,12.73
2023-05-01T19:07:26.341Z,11.52
2023-05-01T19:09:53.280Z,8.93
2023-05-01T19:12:19.984Z,9.65
2023-05-01T19:14:46.716Z,13.02
2023-05-01T19:17:13.462Z,9.20
2023-05-01T19:19:40.113Z,7.50
2023-05-01T19:22:07.276Z,10.32
2023-05-01T19:24:33.942Z,9.95
2023-05-01T19:27:01.624Z,9.30
2023-05-01T19:29:28.255Z,12.48
2023-05-01T19:31:55.162Z,10.23
2023-05-01T19:34:21.859Z,10.70
2023-05-01T19:36:48.562Z,11.27
2023-05-01T19:39:15.327Z,10.90
2023-05-01T19:41:42.167Z,11.10
2023-05-01T19:44:08.813Z,14.82
2023-05-01T19:46:35.571Z,10.82
2023-05-01T19:49:02.439Z,13.07
2023-05-01T19:51:29.110Z,14.00
2023-05-01T19:53:55.838Z,14.73
2023-05-01T19:56:23.198Z,11.88
2023-05-01T19:58:49.970Z,12.10
2023-05-01T20:01:16.846Z,14.35
2023-05-01T20:03:43.574Z,14.40
2023-05-01T20:06:10.389Z,18.60
2023-05-01T20:08:37.208Z,16.65
2023-05-01T20:11:03.866Z,12.45
2023-05-01T20:13:30.691Z,10.57
2023-05-01T20:15:57.300Z,11.43
2023-05-01T20:18:24.169Z,10.15
2023-05-01T20:20:51.022Z,14.88
2023-05-01T20:23:19.699Z,12.75
2023-05-01T20:25:51.541Z,12.15
2023-05-01T20:28:18.946Z,11.52
2023-05-01T20:30:47.284Z,11.88
2023-05-01T20:33:14.368Z,14.57
2023-05-01T20:35:41.320Z,12.70
2023-05-01T20:38:08.012Z,14.07
2023-05-01T20:40:37.171Z,17.50
2023-05-01T20:43:03.912Z,9.73
2023-05-01T20:45:30.903Z,14.68
2023-05-01T20:47:58.280Z,9.70
2023-05-01T20:50:29.294Z,14.32
2023-05-01T20:52:56.193Z,11.80
2023-05-01T20:55:23.580Z,13.05
2023-05-01T20:57:50.386Z,12.65
2023-05-01T21:00:17.284Z,10.00
2023-05-01T21:02:44.190Z,11.80
2023-05-01T21:05:11.524Z,11.60
2023-05-01T21:07:39.537Z,9.40
2023-05-01T21:10:08.723Z,16.42
2023-05-01T21:12:35.876Z,15.70
2023-05-01T21:15:03.463Z,19.33
2023-05-01T21:17:34.955Z,16.17
2023-05-01T21:20:02.535Z,21.23
2023-05-01T21:22:29.398Z,25.73
2023-05-01T21:24:58.798Z,23.27
2023-05-01T21:27:26.847Z,22.23
2023-05-01T21:29:59.079Z,24.77
2023-05-01T21:32:47.065Z,25.25
2023-05-01T21:35:16.746Z,25.77
2023-05-01T21:37:45.094Z,29.52
2023-05-01T21:40:14.171Z,22.65
2023-05-01T21:42:41.069Z,21.75
2023-05-01T21:45:10.150Z,21.42
2023-05-01T21:47:40.298Z,19.90
2023-05-01T21:52:34.998Z,19.85
2023-05-01T21:55:03.778Z,21.20
2023-05-01T21:57:31.642Z,17.85
2023-05-01T22:00:01.621Z,17.80
2023-05-01T22:04:58.213Z,15.48
2023-05-01T22:07:25.000Z,19.10
2023-05-01T22:09:51.749Z,16.23
2023-05-01T22:12:18.372Z,24.65
2023-05-01T22:14:47.804Z,15.63
2023-05-01T22:17:14.918Z,18.98
2023-05-01T22:19:42.067Z,16.60
2023-05-01T22:22:08.668Z,17.52
2023-05-01T22:24:36.273Z,16.30
2023-05-01T22:27:02.885Z,18.67
2023-05-01T22:29:29.522Z,17.08
2023-05-01T22:31:56.932Z,19.90
2023-05-01T22:34:23.712Z,18.58
2023-05-01T22:36:50.392Z,17.83
2023-05-01T22:39:17.068Z,15.45
2023-05-01T22:41:43.729Z,17.20
2023-05-01T22:44:10.507Z,17.73
2023-05-01T22:46:37.230Z,13.32
2023-05-01T22:49:04.298Z,15.95
2023-05-01T22:51:31.325Z,16.92
2023-05-01T22:53:57.978Z,18.17
2023-05-01T22:56:26.224Z,16.20
2023-05-01T22:58:53.107Z,15.40
2023-05-01T23:01:19.898Z,17.13
2023-05-01T23:03:46.718Z,17.27
2023-05-01T23:06:13.584Z,15.50
2023-05-01T23:08:40.472Z,14.63
2023-05-01T23:11:07.199Z,16.95
2023-05-01T23:13:33.881Z,16.40
2023-05-01T23:16:00.646Z,14.63
2023-05-01T23:18:33.042Z,14.68
2023-05-01T23:20:59.779Z,10.80
2023-05-01T23:23:29.806Z,13.82
2023-05-01T23:25:56.720Z,13.05
2023-05-01T23:28:24.766Z,17.55
2023-05-01T23:30:55.825Z,10.85
2023-05-01T23:33:27.278Z,11.40
2023-05-01T23:35:54.277Z,12.93
2023-05-01T23:38:21.030Z,9.70
2023-05-01T23:40:47.774Z,16.67
2023-05-01T23:43:14.939Z,9.70
2023-05-01T23:45:41.732Z,14.13
2023-05-01T23:48:09.088Z,14.20
2023-05-01T23:50:36.266Z,13.82
2023-05-01T23:53:08.082Z,12.60
2023-05-01T23:55:35.800Z,11.32
2023-05-01T23:58:02.635Z,15.43
